createdAt,value
2023-02-02T00:00:44.943Z,1.30
2023-02-02T00:02:04.835Z,1.20
2023-02-02T00:03:06.585Z,1.50
2023-02-02T00:04:09.658Z,1.90
2023-02-02T00:05:12.239Z,2.10
2023-02-02T00:06:13.954Z,2.30
2023-02-02T00:07:15.657Z,2.20
2023-02-02T00:08:18.820Z,2.45
2023-02-02T00:09:21.387Z,1.92
2023-02-02T00:10:23.106Z,2.15
2023-02-02T00:11:25.587Z,2.13
2023-02-02T00:12:28.163Z,1.80
2023-02-02T00:13:29.952Z,2.10
2023-02-02T00:14:31.742Z,2.10
2023-02-02T00:15:33.632Z,2.10
2023-02-02T00:16:41.016Z,2.13
2023-02-02T00:17:42.724Z,2.13
2023-02-02T00:18:44.440Z,2.15
2023-02-02T00:19:46.897Z,2.47
2023-02-02T00:20:51.594Z,2.08
2023-02-02T00:21:54.975Z,2.03
2023-02-02T00:22:57.214Z,2.38
2023-02-02T00:23:58.933Z,2.38
2023-02-02T00:25:00.656Z,2.38
2023-02-02T00:26:02.396Z,2.00
2023-02-02T00:27:04.174Z,1.98
2023-02-02T00:28:05.885Z,2.45
2023-02-02T00:29:12.598Z,2.25
2023-02-02T00:30:14.705Z,2.83
2023-02-02T00:31:16.643Z,2.33
2023-02-02T00:32:19.314Z,1.98
2023-02-02T00:33:21.022Z,2.00
2023-02-02T00:34:23.579Z,2.00
2023-02-02T00:35:25.673Z,2.10
2023-02-02T00:36:27.586Z,1.85
2023-02-02T00:37:29.285Z,2.15
2023-02-02T00:38:32.218Z,1.88
2023-02-02T00:39:33.943Z,1.63
2023-02-02T00:40:35.683Z,1.45
2023-02-02T00:41:37.428Z,1.92
2023-02-02T00:42:39.184Z,1.80
2023-02-02T00:43:40.872Z,1.85
2023-02-02T00:45:01.161Z,1.60
2023-02-02T00:46:02.951Z,1.77
2023-02-02T00:47:05.256Z,1.60
2023-02-02T00:48:07.030Z,1.80
2023-02-02T00:49:09.569Z,1.65
2023-02-02T00:50:14.203Z,2.15
2023-02-02T00:51:15.931Z,1.65
2023-02-02T00:52:17.648Z,1.52
2023-02-02T00:53:19.457Z,2.00
2023-02-02T00:54:21.306Z,1.50
2023-02-02T00:55:23.373Z,1.50
2023-02-02T00:56:26.058Z,1.70
2023-02-02T00:57:27.783Z,1.85
2023-02-02T00:58:29.470Z,1.40
2023-02-02T00:59:31.210Z,1.50
2023-02-02T01:00:32.935Z,1.60
2023-02-02T01:01:35.149Z,1.38
2023-02-02T01:02:36.867Z,1.50
2023-02-02T01:03:38.551Z,1.17
2023-02-02T01:04:40.463Z,1.50
2023-02-02T01:05:42.180Z,1.50
2023-02-02T01:06:43.887Z,1.30
2023-02-02T01:07:46.358Z,1.25
2023-02-02T01:08:48.093Z,1.75
2023-02-02T01:09:49.830Z,1.60
2023-02-02T01:10:51.537Z,1.60
2023-02-02T01:11:53.283Z,1.40
2023-02-02T01:12:54.997Z,1.55
2023-02-02T01:13:56.941Z,1.48
2023-02-02T01:14:58.644Z,1.60
2023-02-02T01:16:02.105Z,1.30
2023-02-02T01:17:05.447Z,1.55
2023-02-02T01:18:07.233Z,1.50
2023-02-02T01:19:09.314Z,1.85
2023-02-02T01:20:18.089Z,1.60
2023-02-02T01:21:20.371Z,1.60
2023-02-02T01:22:22.145Z,1.42
2023-02-02T01:23:24.377Z,1.35
2023-02-02T01:24:26.095Z,1.33
2023-02-02T01:25:27.782Z,1.50
2023-02-02T01:26:29.619Z,1.42
2023-02-02T01:27:31.353Z,1.50
2023-02-02T01:28:33.127Z,1.40
2023-02-02T01:29:34.879Z,1.40
2023-02-02T01:30:36.643Z,1.45
2023-02-02T01:31:38.652Z,1.27
2023-02-02T01:32:40.435Z,1.23
2023-02-02T01:33:43.902Z,1.50
2023-02-02T01:34:45.637Z,1.63
2023-02-02T01:35:55.119Z,1.30
2023-02-02T01:36:56.887Z,1.55
2023-02-02T01:37:58.584Z,1.60
2023-02-02T01:39:00.317Z,1.50
2023-02-02T01:40:02.053Z,1.50
2023-02-02T01:41:04.760Z,1.30
2023-02-02T01:42:13.883Z,1.42
2023-02-02T01:43:29.208Z,1.33
2023-02-02T01:44:52.951Z,1.55
2023-02-02T01:45:56.500Z,1.42
2023-02-02T01:46:58.282Z,1.73
2023-02-02T01:48:00.812Z,1.50
2023-02-02T01:49:13.553Z,1.70
2023-02-02T01:50:17.275Z,1.48
2023-02-02T01:51:23.372Z,1.95
2023-02-02T01:52:29.376Z,1.67
2023-02-02T01:53:32.778Z,1.70
2023-02-02T01:54:40.013Z,1.70
2023-02-02T01:55:42.726Z,1.60
2023-02-02T01:56:55.001Z,1.85
2023-02-02T01:58:05.276Z,1.48
2023-02-02T01:59:07.797Z,1.67
2023-02-02T02:00:12.748Z,1.40
2023-02-02T02:01:15.062Z,1.40
2023-02-02T02:02:17.185Z,1.80
2023-02-02T02:03:23.122Z,1.83
2023-02-02T02:04:26.882Z,1.58
2023-02-02T02:05:56.897Z,1.75
2023-02-02T02:07:00.935Z,2.42
2023-02-02T02:08:13.964Z,2.28
2023-02-02T02:09:15.826Z,2.28
2023-02-02T02:10:18.798Z,1.60
2023-02-02T02:11:21.454Z,2.20
2023-02-02T02:12:23.212Z,2.03
2023-02-02T02:13:47.537Z,1.88
2023-02-02T02:15:09.824Z,1.80
2023-02-02T02:16:43.229Z,2.70
2023-02-02T02:17:57.071Z,3.05
2023-02-02T02:19:29.129Z,3.10
2023-02-02T02:21:51.280Z,3.90
2023-02-02T02:23:26.806Z,3.10
2023-02-02T02:25:41.028Z,2.92
2023-02-02T02:27:01.397Z,2.38
2023-02-02T02:28:03.038Z,2.25
2023-02-02T02:29:10.642Z,2.30
2023-02-02T02:31:02.050Z,1.80
2023-02-02T02:32:27.433Z,1.40
2023-02-02T02:33:40.427Z,1.50
2023-02-02T02:34:44.897Z,1.70
2023-02-02T02:36:14.440Z,1.58
2023-02-02T02:37:47.013Z,1.60
2023-02-02T02:39:02.369Z,1.80
2023-02-02T02:40:11.401Z,1.60
2023-02-02T02:41:28.124Z,1.63
2023-02-02T02:42:35.572Z,1.75
2023-02-02T02:44:02.131Z,1.50
2023-02-02T02:45:05.172Z,1.83
2023-02-02T02:46:08.405Z,1.50
2023-02-02T02:47:10.901Z,1.30
2023-02-02T02:48:12.630Z,1.98
2023-02-02T02:49:14.386Z,2.30
2023-02-02T02:50:16.496Z,1.85
2023-02-02T02:51:44.779Z,1.50
2023-02-02T02:52:49.628Z,1.48
2023-02-02T02:53:51.349Z,1.40
2023-02-02T02:54:55.708Z,1.90
2023-02-02T02:56:23.203Z,1.48
2023-02-02T02:57:47.877Z,1.27
2023-02-02T02:59:07.427Z,1.40
2023-02-02T03:00:27.412Z,1.42
2023-02-02T03:01:38.568Z,1.27
2023-02-02T03:02:42.978Z,1.20
2023-02-02T03:04:07.967Z,0.93
2023-02-02T03:05:32.242Z,1.30
2023-02-02T03:07:09.204Z,1.23
2023-02-02T03:08:18.006Z,1.50
2023-02-02T03:09:23.796Z,1.10
2023-02-02T03:10:29.951Z,1.17
2023-02-02T03:11:31.716Z,1.38
2023-02-02T03:12:34.283Z,1.20
2023-02-02T03:13:36.156Z,1.42
2023-02-02T03:14:39.568Z,1.10
2023-02-02T03:15:43.197Z,1.30
2023-02-02T03:16:44.889Z,1.10
2023-02-02T03:17:49.393Z,1.25
2023-02-02T03:18:51.133Z,1.20
2023-02-02T03:19:52.874Z,1.23
2023-02-02T03:20:54.901Z,1.40
2023-02-02T03:21:56.650Z,1.30
2023-02-02T03:22:58.353Z,1.00
2023-02-02T03:24:00.689Z,1.55
2023-02-02T03:25:02.473Z,1.20
2023-02-02T03:26:05.139Z,1.38
2023-02-02T03:27:06.842Z,1.05
2023-02-02T03:28:09.244Z,1.05
2023-02-02T03:29:11.296Z,1.20
2023-02-02T03:30:14.293Z,1.35
2023-02-02T03:31:16.602Z,1.77
2023-02-02T03:32:18.558Z,1.98
2023-02-02T03:33:20.825Z,1.20
2023-02-02T03:34:22.531Z,1.02
2023-02-02T03:35:26.135Z,1.05
2023-02-02T03:36:28.250Z,1.30
2023-02-02T03:37:29.944Z,1.20
2023-02-02T03:38:31.809Z,1.50
2023-02-02T03:39:33.519Z,2.00
2023-02-02T03:40:35.465Z,1.85
2023-02-02T03:41:37.178Z,1.50
2023-02-02T03:42:38.930Z,1.75
2023-02-02T03:43:40.677Z,2.00
2023-02-02T03:44:42.393Z,2.53
2023-02-02T03:45:44.133Z,1.60
2023-02-02T03:46:45.895Z,1.23
2023-02-02T03:47:47.626Z,2.25
2023-02-02T03:48:49.326Z,1.88
2023-02-02T03:49:51.064Z,1.70
2023-02-02T03:50:53.273Z,1.80
2023-02-02T03:51:55.026Z,1.60
2023-02-02T03:52:56.722Z,1.40
2023-02-02T03:53:58.446Z,1.42
2023-02-02T03:55:00.405Z,1.20
2023-02-02T03:56:02.116Z,1.60
2023-02-02T03:57:03.861Z,2.00
2023-02-02T03:58:05.560Z,2.22
2023-02-02T03:59:07.275Z,1.65
2023-02-02T04:00:10.073Z,1.60
2023-02-02T04:01:12.969Z,1.40
2023-02-02T04:02:14.686Z,1.70
2023-02-02T04:03:16.415Z,1.80
2023-02-02T04:04:18.102Z,1.95
2023-02-02T04:05:19.815Z,2.03
2023-02-02T04:06:22.002Z,1.50
2023-02-02T04:07:23.782Z,2.00
2023-02-02T04:08:25.536Z,1.63
2023-02-02T04:09:27.510Z,1.80
2023-02-02T04:10:29.516Z,1.70
2023-02-02T04:11:32.164Z,1.80
2023-02-02T04:12:33.884Z,1.48
2023-02-02T04:13:35.573Z,1.52
2023-02-02T04:14:37.284Z,1.48
2023-02-02T04:15:39.201Z,1.33
2023-02-02T04:16:40.947Z,1.60
2023-02-02T04:17:43.046Z,1.80
2023-02-02T04:18:44.767Z,1.42
2023-02-02T04:19:46.585Z,1.65
2023-02-02T04:20:48.270Z,1.60
2023-02-02T04:21:50.075Z,1.50
2023-02-02T04:22:51.756Z,2.10
2023-02-02T04:23:53.477Z,1.70
2023-02-02T04:24:55.448Z,1.60
2023-02-02T04:25:57.893Z,1.58
2023-02-02T04:26:59.610Z,1.48
2023-02-02T04:28:01.303Z,1.90
2023-02-02T04:29:03.292Z,1.60
2023-02-02T04:30:06.065Z,1.55
2023-02-02T04:31:07.895Z,1.65
2023-02-02T04:32:09.971Z,1.80
2023-02-02T04:33:11.749Z,1.67
2023-02-02T04:34:13.485Z,1.80
2023-02-02T04:35:15.291Z,1.65
2023-02-02T04:36:17.023Z,2.25
2023-02-02T04:37:18.795Z,1.95
2023-02-02T04:38:20.663Z,2.08
2023-02-02T04:39:22.378Z,2.67
2023-02-02T04:40:24.302Z,2.72
2023-02-02T04:41:26.030Z,2.53
2023-02-02T04:42:27.811Z,2.80
2023-02-02T04:43:29.501Z,2.60
2023-02-02T04:44:31.288Z,2.58
2023-02-02T04:45:33.344Z,2.97
2023-02-02T04:46:35.145Z,2.38
2023-02-02T04:47:36.900Z,2.33
2023-02-02T04:48:38.979Z,2.63
2023-02-02T04:49:41.406Z,2.50
2023-02-02T04:50:43.113Z,2.10
2023-02-02T04:51:44.839Z,1.58
2023-02-02T04:52:46.600Z,1.83
2023-02-02T04:53:48.327Z,1.80
2023-02-02T04:54:50.062Z,1.45
2023-02-02T04:55:51.856Z,2.05
2023-02-02T04:56:53.597Z,2.20
2023-02-02T04:57:55.300Z,3.25
2023-02-02T04:58:57.131Z,11.10
2023-02-02T04:59:58.866Z,11.55
2023-02-02T05:01:00.657Z,11.75
2023-02-02T05:02:03.173Z,6.47
2023-02-02T05:03:04.864Z,4.85
2023-02-02T05:04:06.682Z,4.78
2023-02-02T05:05:11.364Z,6.38
2023-02-02T05:06:15.879Z,9.45
2023-02-02T05:07:17.965Z,7.03
2023-02-02T05:08:19.709Z,3.40
2023-02-02T05:09:21.556Z,2.80
2023-02-02T05:10:23.320Z,2.78
2023-02-02T05:11:25.081Z,1.55
2023-02-02T05:12:26.807Z,1.58
2023-02-02T05:13:28.550Z,1.88
2023-02-02T05:14:30.267Z,2.00
2023-02-02T05:15:31.987Z,2.15
2023-02-02T05:16:33.749Z,2.72
2023-02-02T05:17:35.432Z,2.40
2023-02-02T05:18:37.150Z,2.17
2023-02-02T05:19:38.875Z,1.80
2023-02-02T05:20:40.614Z,2.42
2023-02-02T05:21:44.947Z,2.35
2023-02-02T05:22:50.134Z,2.08
2023-02-02T05:23:51.869Z,2.10
2023-02-02T05:24:53.693Z,2.35
2023-02-02T05:25:55.717Z,2.33
2023-02-02T05:27:00.662Z,2.03
2023-02-02T05:28:02.427Z,2.38
2023-02-02T05:29:04.280Z,1.98
2023-02-02T05:30:06.653Z,1.60
2023-02-02T05:31:09.171Z,1.77
2023-02-02T05:32:10.920Z,2.00
2023-02-02T05:33:12.949Z,2.15
2023-02-02T05:34:14.778Z,2.25
2023-02-02T05:35:16.466Z,2.10
2023-02-02T05:36:18.274Z,2.55
2023-02-02T05:37:20.009Z,2.78
2023-02-02T05:38:21.844Z,2.08
2023-02-02T05:39:23.549Z,2.42
2023-02-02T05:40:25.612Z,2.13
2023-02-02T05:41:27.347Z,3.03
2023-02-02T05:42:29.049Z,2.90
2023-02-02T05:43:32.235Z,2.70
2023-02-02T05:44:33.975Z,2.00
2023-02-02T05:45:35.803Z,2.10
2023-02-02T05:46:37.641Z,2.53
2023-02-02T05:47:39.330Z,2.63
2023-02-02T05:48:41.120Z,2.85
2023-02-02T05:49:42.824Z,3.30
2023-02-02T05:50:49.616Z,4.22
2023-02-02T05:51:57.198Z,4.43
2023-02-02T05:52:59.921Z,4.57
2023-02-02T05:54:01.630Z,4.90
2023-02-02T05:55:04.011Z,4.40
2023-02-02T05:56:05.909Z,3.33
2023-02-02T05:57:07.640Z,3.17
2023-02-02T05:58:09.385Z,4.00
2023-02-02T05:59:11.212Z,2.70
2023-02-02T06:00:13.472Z,2.88
2023-02-02T06:01:16.334Z,3.50
2023-02-02T06:02:18.268Z,3.15
2023-02-02T06:03:20.100Z,3.72
2023-02-02T06:04:21.902Z,2.97
2023-02-02T06:05:23.974Z,3.00
2023-02-02T06:06:25.953Z,3.70
2023-02-02T06:07:27.713Z,3.60
2023-02-02T06:08:29.444Z,3.35
2023-02-02T06:09:31.223Z,3.22
2023-02-02T06:10:32.977Z,2.22
2023-02-02T06:11:35.053Z,2.00
2023-02-02T06:12:36.833Z,1.98
2023-02-02T06:13:38.809Z,2.53
2023-02-02T06:14:40.513Z,7.18
2023-02-02T06:15:43.375Z,5.68
2023-02-02T06:16:45.179Z,5.35
2023-02-02T06:17:46.870Z,5.43
2023-02-02T06:18:48.768Z,3.75
2023-02-02T06:19:50.536Z,2.60
2023-02-02T06:20:59.939Z,2.65
2023-02-02T06:22:01.645Z,1.52
2023-02-02T06:23:03.502Z,1.60
2023-02-02T06:24:05.538Z,1.90
2023-02-02T06:25:08.806Z,1.90
2023-02-02T06:26:10.507Z,1.80
2023-02-02T06:27:12.182Z,1.13
2023-02-02T06:28:13.869Z,1.50
2023-02-02T06:29:15.973Z,1.70
2023-02-02T06:30:18.035Z,1.48
2023-02-02T06:31:20.605Z,1.50
2023-02-02T06:32:22.375Z,1.83
2023-02-02T06:33:24.167Z,1.70
2023-02-02T06:34:25.941Z,1.90
2023-02-02T06:35:27.869Z,1.20
2023-02-02T06:36:29.608Z,1.98
2023-02-02T06:37:31.374Z,1.77
2023-02-02T06:38:33.847Z,1.58
2023-02-02T06:39:35.631Z,1.65
2023-02-02T06:40:37.420Z,1.60
2023-02-02T06:41:40.553Z,2.00
2023-02-02T06:42:42.327Z,2.45
2023-02-02T06:43:44.710Z,1.77
2023-02-02T06:44:46.415Z,2.25
2023-02-02T06:45:48.129Z,1.92
2023-02-02T06:46:49.870Z,1.58
2023-02-02T06:47:52.394Z,1.60
2023-02-02T06:48:54.371Z,1.40
2023-02-02T06:49:56.074Z,2.20
2023-02-02T06:50:59.701Z,2.00
2023-02-02T06:52:02.149Z,1.80
2023-02-02T06:53:04.545Z,2.20
2023-02-02T06:54:06.315Z,1.50
2023-02-02T06:55:08.214Z,1.48
2023-02-02T06:56:13.032Z,1.73
2023-02-02T06:57:14.742Z,1.90
2023-02-02T06:58:16.441Z,1.70
2023-02-02T06:59:18.370Z,1.90
2023-02-02T07:00:20.749Z,2.00
2023-02-02T07:01:22.573Z,1.70
2023-02-02T07:02:24.325Z,1.77
2023-02-02T07:03:26.028Z,1.65
2023-02-02T07:04:27.748Z,2.00
2023-02-02T07:05:30.866Z,1.80
2023-02-02T07:06:32.931Z,1.73
2023-02-02T07:07:36.201Z,1.50
2023-02-02T07:08:38.661Z,1.73
2023-02-02T07:09:40.660Z,1.55
2023-02-02T07:11:09.211Z,2.08
2023-02-02T07:12:06.720Z,2.25
2023-02-02T07:13:08.737Z,2.10
2023-02-02T07:14:11.534Z,1.98
2023-02-02T07:15:13.269Z,2.20
2023-02-02T07:16:19.113Z,1.90
2023-02-02T07:17:20.883Z,1.67
2023-02-02T07:18:23.054Z,1.77
2023-02-02T07:19:24.841Z,2.10
2023-02-02T07:20:27.150Z,1.80
2023-02-02T07:21:35.542Z,2.15
2023-02-02T07:22:41.316Z,2.00
2023-02-02T07:23:43.085Z,1.88
2023-02-02T07:24:44.781Z,1.67
2023-02-02T07:25:46.500Z,1.70
2023-02-02T07:26:48.347Z,1.80
2023-02-02T07:27:54.673Z,2.30
2023-02-02T07:28:56.462Z,1.98
2023-02-02T07:29:58.342Z,1.88
2023-02-02T07:31:01.462Z,1.90
2023-02-02T07:32:03.216Z,2.08
2023-02-02T07:33:04.941Z,2.22
2023-02-02T07:34:06.770Z,1.90
2023-02-02T07:35:08.715Z,1.98
2023-02-02T07:36:11.705Z,1.98
2023-02-02T07:37:13.443Z,2.00
2023-02-02T07:38:15.225Z,1.80
2023-02-02T07:39:16.943Z,1.83
2023-02-02T07:40:18.879Z,2.00
2023-02-02T07:41:21.194Z,1.95
2023-02-02T07:42:22.947Z,2.17
2023-02-02T07:43:24.651Z,2.22
2023-02-02T07:44:26.405Z,2.05
2023-02-02T07:45:28.593Z,2.42
2023-02-02T07:46:30.853Z,2.55
2023-02-02T07:47:32.624Z,2.40
2023-02-02T07:48:35.099Z,1.80
2023-02-02T07:49:36.892Z,1.95
2023-02-02T07:50:38.587Z,2.10
2023-02-02T07:51:43.856Z,1.90
2023-02-02T07:52:48.130Z,2.95
2023-02-02T07:53:52.627Z,3.97
2023-02-02T07:55:02.447Z,2.83
2023-02-02T07:56:16.532Z,2.20
2023-02-02T07:57:18.425Z,2.30
2023-02-02T07:58:20.292Z,2.10
2023-02-02T07:59:22.184Z,2.50
2023-02-02T08:00:24.989Z,2.30
2023-02-02T08:01:28.605Z,2.10
2023-02-02T08:02:30.408Z,2.47
2023-02-02T08:03:32.615Z,2.35
2023-02-02T08:04:34.523Z,2.53
2023-02-02T08:05:36.232Z,2.05
2023-02-02T08:06:39.883Z,1.85
2023-02-02T08:07:41.673Z,1.90
2023-02-02T08:08:43.381Z,1.75
2023-02-02T08:09:48.596Z,1.65
2023-02-02T08:10:51.452Z,2.22
2023-02-02T08:11:53.218Z,1.90
2023-02-02T08:12:54.934Z,1.60
2023-02-02T08:13:59.359Z,1.90
2023-02-02T08:15:01.062Z,2.10
2023-02-02T08:16:02.853Z,1.85
2023-02-02T08:17:04.642Z,1.92
2023-02-02T08:18:06.366Z,2.08
2023-02-02T08:19:08.114Z,1.90
2023-02-02T08:20:10.655Z,2.03
2023-02-02T08:21:12.722Z,1.83
2023-02-02T08:22:14.412Z,1.80
2023-02-02T08:23:16.886Z,1.92
2023-02-02T08:24:18.602Z,2.00
2023-02-02T08:25:20.644Z,1.77
2023-02-02T08:26:27.800Z,1.90
2023-02-02T08:27:29.754Z,1.80
2023-02-02T08:28:31.483Z,1.95
2023-02-02T08:29:33.238Z,1.90
2023-02-02T08:30:35.901Z,1.85
2023-02-02T08:31:41.925Z,1.90
2023-02-02T08:32:43.873Z,1.92
2023-02-02T08:33:46.081Z,3.15
2023-02-02T08:34:52.043Z,1.80
2023-02-02T08:35:53.776Z,2.60
2023-02-02T08:36:55.481Z,2.33
2023-02-02T08:37:57.219Z,2.53
2023-02-02T08:39:04.443Z,1.73
2023-02-02T08:40:06.977Z,1.90
2023-02-02T08:41:10.913Z,1.88
2023-02-02T08:42:12.730Z,1.80
2023-02-02T08:43:16.580Z,2.55
2023-02-02T08:44:18.337Z,1.90
2023-02-02T08:46:01.173Z,2.00
2023-02-02T08:46:43.827Z,2.55
2023-02-02T08:47:45.628Z,2.30
2023-02-02T08:48:48.494Z,1.65
2023-02-02T08:49:50.196Z,1.75
2023-02-02T08:50:54.043Z,2.35
2023-02-02T08:51:59.394Z,1.83
2023-02-02T08:53:01.211Z,1.70
2023-02-02T08:54:02.954Z,2.00
2023-02-02T08:55:05.161Z,1.92
2023-02-02T08:56:15.925Z,1.80
2023-02-02T08:57:17.718Z,1.80
2023-02-02T08:58:19.444Z,2.53
2023-02-02T08:59:21.190Z,1.98
2023-02-02T09:00:23.224Z,1.85
2023-02-02T09:01:30.042Z,2.45
2023-02-02T09:02:31.818Z,2.22
2023-02-02T09:03:34.519Z,2.33
2023-02-02T09:04:36.223Z,2.78
2023-02-02T09:05:38.660Z,2.70
2023-02-02T09:06:41.737Z,1.98
2023-02-02T09:07:43.416Z,3.30
2023-02-02T09:08:46.514Z,2.55
2023-02-02T09:09:48.374Z,2.70
2023-02-02T09:10:50.072Z,2.63
2023-02-02T09:11:51.833Z,2.10
2023-02-02T09:12:53.540Z,2.15
2023-02-02T09:13:57.739Z,1.60
2023-02-02T09:14:59.429Z,2.10
2023-02-02T09:16:02.772Z,1.83
2023-02-02T09:17:04.568Z,2.38
2023-02-02T09:18:06.339Z,2.05
2023-02-02T09:19:08.169Z,1.90
2023-02-02T09:20:10.461Z,2.22
2023-02-02T09:21:15.022Z,1.92
2023-02-02T09:22:16.739Z,2.25
2023-02-02T09:23:18.452Z,4.22
2023-02-02T09:24:20.253Z,2.15
2023-02-02T09:25:22.089Z,1.83
2023-02-02T09:26:27.225Z,2.15
2023-02-02T09:27:29.087Z,2.20
2023-02-02T09:28:30.773Z,2.25
2023-02-02T09:29:32.496Z,1.90
2023-02-02T09:30:34.260Z,2.40
2023-02-02T09:31:37.920Z,1.83
2023-02-02T09:32:39.714Z,2.00
2023-02-02T09:33:42.616Z,1.90
2023-02-02T09:34:44.352Z,2.00
2023-02-02T09:35:46.089Z,2.00
2023-02-02T09:36:47.871Z,1.85
2023-02-02T09:37:49.575Z,1.90
2023-02-02T09:38:51.924Z,1.95
2023-02-02T09:39:53.631Z,2.20
2023-02-02T09:40:55.540Z,1.90
2023-02-02T09:41:57.214Z,2.00
2023-02-02T09:43:17.275Z,1.95
2023-02-02T09:44:21.952Z,1.90
2023-02-02T09:45:37.933Z,1.92
2023-02-02T09:46:48.313Z,2.38
2023-02-02T09:48:29.244Z,2.40
2023-02-02T09:49:52.031Z,1.87
2023-02-02T09:50:59.168Z,2.58
2023-02-02T09:52:08.637Z,2.60
2023-02-02T09:53:19.212Z,2.63
2023-02-02T09:54:27.481Z,2.45
2023-02-02T09:55:35.212Z,1.83
2023-02-02T09:56:43.269Z,1.92
2023-02-02T09:57:52.847Z,1.92
2023-02-02T09:58:58.852Z,2.00
2023-02-02T10:00:05.904Z,1.80
2023-02-02T10:01:16.559Z,1.90
2023-02-02T10:02:42.355Z,2.13
2023-02-02T10:04:06.768Z,1.90
2023-02-02T10:05:15.632Z,2.10
2023-02-02T10:06:40.301Z,2.03
2023-02-02T10:07:46.004Z,1.80
2023-02-02T10:08:54.264Z,1.80
2023-02-02T10:10:00.483Z,1.90
2023-02-02T10:11:24.355Z,1.60
2023-02-02T10:12:58.377Z,1.60
2023-02-02T10:14:06.519Z,2.13
2023-02-02T10:15:24.607Z,2.00
2023-02-02T10:16:27.654Z,1.98
2023-02-02T10:17:45.804Z,2.20
2023-02-02T10:18:47.443Z,2.10
2023-02-02T10:19:52.977Z,1.85
2023-02-02T10:20:59.152Z,1.90
2023-02-02T10:22:19.808Z,1.90
2023-02-02T10:23:37.114Z,2.30
2023-02-02T10:24:38.982Z,2.50
2023-02-02T10:25:50.521Z,2.70
2023-02-02T10:26:55.739Z,2.55
2023-02-02T10:28:20.329Z,2.83
2023-02-02T10:29:21.997Z,2.70
2023-02-02T10:30:46.381Z,2.40
2023-02-02T10:31:54.179Z,1.80
2023-02-02T10:33:07.072Z,2.70
2023-02-02T10:34:14.536Z,2.70
2023-02-02T10:35:30.411Z,2.38
2023-02-02T10:36:50.301Z,2.17
2023-02-02T10:38:07.439Z,2.60
2023-02-02T10:39:23.531Z,2.92
2023-02-02T10:40:37.672Z,2.40
2023-02-02T10:41:57.083Z,2.75
2023-02-02T10:43:47.774Z,2.42
2023-02-02T10:44:57.634Z,2.63
2023-02-02T10:46:02.092Z,2.55
2023-02-02T10:47:06.481Z,3.35
2023-02-02T10:48:20.598Z,4.03
2023-02-02T10:49:25.267Z,3.10
2023-02-02T10:50:28.169Z,3.10
2023-02-02T10:51:30.647Z,2.50
2023-02-02T10:52:34.190Z,2.00
2023-02-02T10:53:36.209Z,2.10
2023-02-02T10:55:16.184Z,2.28
2023-02-02T10:56:34.152Z,2.08
2023-02-02T10:58:03.330Z,2.03
2023-02-02T10:59:10.818Z,2.08
2023-02-02T11:00:22.279Z,2.05
2023-02-02T11:01:24.712Z,2.47
2023-02-02T11:02:26.494Z,2.10
2023-02-02T11:03:34.653Z,1.90
2023-02-02T11:04:55.185Z,2.05
2023-02-02T11:06:21.923Z,2.08
2023-02-02T11:07:23.713Z,1.90
2023-02-02T11:08:32.761Z,2.05
2023-02-02T11:09:41.128Z,3.17
2023-02-02T11:10:44.949Z,1.60
2023-02-02T11:11:53.445Z,2.55
2023-02-02T11:12:57.842Z,1.70
2023-02-02T11:14:09.706Z,2.05
2023-02-02T11:16:42.143Z,1.52
2023-02-02T11:17:45.118Z,1.70
2023-02-02T11:18:47.519Z,1.65
2023-02-02T11:19:52.446Z,1.67
2023-02-02T11:20:54.388Z,1.95
2023-02-02T11:21:58.405Z,1.60
2023-02-02T11:23:02.276Z,1.80
2023-02-02T11:24:07.649Z,1.67
2023-02-02T11:25:33.204Z,1.42
2023-02-02T11:27:16.121Z,1.63
2023-02-02T11:28:24.924Z,1.63
2023-02-02T11:29:29.389Z,2.10
2023-02-02T11:30:37.216Z,1.98
2023-02-02T11:31:39.154Z,1.98
2023-02-02T11:32:41.959Z,1.70
2023-02-02T11:33:43.761Z,1.80
2023-02-02T11:34:45.724Z,1.65
2023-02-02T11:35:56.702Z,1.67
2023-02-02T11:37:21.918Z,1.70
2023-02-02T11:38:23.804Z,1.60
2023-02-02T11:39:26.439Z,1.58
2023-02-02T11:40:36.981Z,1.85
2023-02-02T11:41:38.725Z,1.92
2023-02-02T11:42:47.050Z,1.77
2023-02-02T11:43:51.173Z,1.75
2023-02-02T11:44:59.871Z,1.58
2023-02-02T11:46:05.436Z,1.63
2023-02-02T11:47:07.325Z,1.63
2023-02-02T11:48:24.765Z,1.65
2023-02-02T11:49:26.957Z,2.00
2023-02-02T11:50:29.399Z,1.60
2023-02-02T11:51:32.269Z,1.65
2023-02-02T11:52:34.427Z,2.50
2023-02-02T11:53:45.555Z,2.40
2023-02-02T11:55:55.056Z,2.30
2023-02-02T11:57:01.143Z,2.25
2023-02-02T11:58:25.118Z,2.33
2023-02-02T11:59:31.030Z,2.15
2023-02-02T12:00:32.786Z,1.90
2023-02-02T12:01:40.000Z,2.55
2023-02-02T12:02:49.530Z,1.75
2023-02-02T12:03:52.983Z,1.50
2023-02-02T12:05:14.610Z,2.20
2023-02-02T12:06:44.440Z,2.38
2023-02-02T12:07:47.929Z,1.73
2023-02-02T12:08:50.295Z,1.80
2023-02-02T12:09:52.940Z,1.40
2023-02-02T12:11:02.328Z,1.70
2023-02-02T12:12:30.781Z,1.65
2023-02-02T12:14:12.187Z,1.35
2023-02-02T12:15:47.792Z,1.67
2023-02-02T12:17:23.572Z,1.60
2023-02-02T12:18:38.343Z,1.83
2023-02-02T12:20:16.412Z,1.65
2023-02-02T12:21:56.968Z,1.40
2023-02-02T12:23:14.852Z,1.50
2023-02-02T12:24:54.293Z,1.80
2023-02-02T12:26:27.868Z,1.60
2023-02-02T12:28:11.627Z,1.23
2023-02-02T12:29:37.675Z,1.13
2023-02-02T12:30:54.142Z,1.40
2023-02-02T12:32:14.177Z,1.45
2023-02-02T12:33:33.066Z,2.35
2023-02-02T12:34:51.370Z,1.50
2023-02-02T12:35:59.177Z,1.58
2023-02-02T12:37:31.348Z,1.80
2023-02-02T12:39:03.707Z,1.52
2023-02-02T12:40:55.969Z,1.70
2023-02-02T12:42:22.932Z,1.35
2023-02-02T12:43:31.492Z,1.63
2023-02-02T12:44:57.226Z,1.33
2023-02-02T12:46:17.648Z,1.65
2023-02-02T12:48:03.543Z,1.73
2023-02-02T12:49:37.132Z,1.92
2023-02-02T12:50:56.904Z,1.73
2023-02-02T12:52:09.022Z,1.88
2023-02-02T12:53:26.757Z,1.65
2023-02-02T12:54:33.944Z,1.90
2023-02-02T12:56:34.702Z,1.73
2023-02-02T12:57:48.378Z,1.70
2023-02-02T12:59:42.591Z,1.10
2023-02-02T13:01:03.391Z,1.80
2023-02-02T13:02:13.743Z,1.80
2023-02-02T13:03:15.455Z,1.85
2023-02-02T13:06:16.349Z,1.80
2023-02-02T13:07:30.949Z,1.73
2023-02-02T13:08:55.042Z,1.50
2023-02-02T13:10:08.607Z,1.63
2023-02-02T13:11:32.830Z,1.63
2023-02-02T13:12:40.795Z,1.70
2023-02-02T13:13:42.533Z,1.98
2023-02-02T13:14:46.660Z,2.00
2023-02-02T13:15:55.162Z,2.00
2023-02-02T13:17:04.685Z,1.60
2023-02-02T13:18:12.192Z,1.77
2023-02-02T13:19:43.546Z,1.73
2023-02-02T13:20:53.279Z,1.70
2023-02-02T13:21:59.426Z,2.00
2023-02-02T13:23:09.153Z,2.20
2023-02-02T13:24:20.954Z,1.90
2023-02-02T13:25:36.127Z,1.85
2023-02-02T13:26:42.627Z,1.75
2023-02-02T13:27:45.723Z,1.52
2023-02-02T13:29:05.795Z,1.33
2023-02-02T13:30:28.690Z,1.60
2023-02-02T13:31:56.598Z,1.60
2023-02-02T13:33:02.575Z,1.92
2023-02-02T13:34:13.027Z,1.50
2023-02-02T13:35:26.200Z,1.40
2023-02-02T13:36:36.080Z,2.20
2023-02-02T13:37:40.439Z,1.70
2023-02-02T13:38:42.639Z,2.45
2023-02-02T13:39:58.755Z,2.50
2023-02-02T13:41:05.789Z,2.35
2023-02-02T13:42:25.412Z,2.33
2023-02-02T13:43:45.453Z,1.80
2023-02-02T13:44:53.056Z,1.80
2023-02-02T13:46:22.376Z,2.30
2023-02-02T13:47:34.583Z,1.95
2023-02-02T13:48:45.697Z,1.80
2023-02-02T13:49:56.694Z,2.45
2023-02-02T13:51:16.894Z,2.03
2023-02-02T13:52:41.265Z,2.40
2023-02-02T13:54:16.916Z,2.70
2023-02-02T13:55:50.947Z,1.90
2023-02-02T13:57:29.503Z,1.63
2023-02-02T13:58:49.011Z,1.75
2023-02-02T14:00:21.547Z,1.75
2023-02-02T14:01:24.977Z,2.65
2023-02-02T14:02:32.444Z,3.42
2023-02-02T14:03:43.223Z,4.53
2023-02-02T14:04:56.816Z,3.10
2023-02-02T14:06:17.000Z,2.20
2023-02-02T14:07:28.709Z,2.40
2023-02-02T14:08:31.855Z,3.47
2023-02-02T14:09:37.510Z,2.63
2023-02-02T14:10:54.247Z,9.45
2023-02-02T14:11:59.904Z,8.23
2023-02-02T14:13:38.145Z,11.55
2023-02-02T14:14:46.991Z,12.60
2023-02-02T14:15:55.731Z,2.80
2023-02-02T14:16:58.561Z,2.10
2023-02-02T14:18:00.229Z,1.73
2023-02-02T14:19:07.674Z,2.10
2023-02-02T14:20:47.712Z,1.90
2023-02-02T14:21:49.313Z,2.03
2023-02-02T14:22:52.437Z,2.05
2023-02-02T14:23:56.353Z,2.00
2023-02-02T14:24:58.029Z,1.90
2023-02-02T14:26:09.345Z,1.95
2023-02-02T14:27:11.112Z,2.28
2023-02-02T14:28:33.969Z,1.83
2023-02-02T14:29:41.826Z,2.05
2023-02-02T14:30:43.625Z,2.20
2023-02-02T14:31:54.787Z,1.88
2023-02-02T14:33:24.782Z,2.40
2023-02-02T14:34:42.179Z,2.95
2023-02-02T14:35:43.749Z,3.00
2023-02-02T14:36:59.819Z,4.45
2023-02-02T14:38:08.153Z,3.47
2023-02-02T14:39:21.623Z,2.75
2023-02-02T14:40:44.864Z,2.35
2023-02-02T14:42:51.653Z,2.30
2023-02-02T14:43:53.639Z,2.65
2023-02-02T14:45:07.879Z,3.05
2023-02-02T14:46:15.593Z,3.13
2023-02-02T14:47:45.339Z,2.70
2023-02-02T14:49:10.285Z,2.85
2023-02-02T14:50:15.680Z,3.00
2023-02-02T14:51:23.887Z,2.80
2023-02-02T14:52:27.371Z,2.50
2023-02-02T14:53:33.539Z,2.75
2023-02-02T14:54:39.969Z,2.25
2023-02-02T14:56:09.327Z,2.78
2023-02-02T14:57:25.787Z,2.60
2023-02-02T14:58:34.950Z,3.17
2023-02-02T14:59:39.891Z,2.78
2023-02-02T15:00:41.551Z,2.90